sensor_id;sensor_type;location;lat;lon;timestamp;temperature;humidity
9973;DHT22;5027;53.560;10.062;2023-04-15T00:00:11;14.60;99.90
9973;DHT22;5027;53.560;10.062;2023-04-15T00:02:42;14.60;99.90
9973;DHT22;5027;53.560;10.062;2023-04-15T00:05:09;14.80;99.90
9973;DHT22;5027;53.560;10.062;2023-04-15T00:07:36;14.80;99.90
9973;DHT22;5027;53.560;10.062;2023-04-15T00:10:03;14.40;99.90
9973;DHT22;5027;53.560;10.062;2023-04-15T00:12:30;14.60;99.90
9973;DHT22;5027;53.560;10.062;2023-04-15T00:14:57;14.60;99.90
9973;DHT22;5027;53.560;10.062;2023-04-15T00:17:24;14.60;99.90
9973;DHT22;5027;53.560;10.062;2023-04-15T00:19:51;14.50;99.90
9973;DHT22;5027;53.560;10.062;2023-04-15T00:22:17;14.60;99.90
9973;DHT22;5027;53.560;10.062;2023-04-15T00:24:44;14.30;99.90
9973;DHT22;5027;53.560;10.062;2023-04-15T00:27:11;14.20;99.90
9973;DHT22;5027;53.560;10.062;2023-04-15T00:29:38;14.30;99.90
9973;DHT22;5027;53.560;10.062;2023-04-15T00:32:04;14.00;99.90
9973;DHT22;5027;53.560;10.062;2023-04-15T00:34:31;13.90;99.90
9973;DHT22;5027;53.560;10.062;2023-04-15T00:36:58;14.00;99.90
9973;DHT22;5027;53.560;10.062;2023-04-15T00:39:26;14.50;99.90
9973;DHT22;5027;53.560;10.062;2023-04-15T00:41:54;14.60;99.90
9973;DHT22;5027;53.560;10.062;2023-04-15T00:44:21;14.70;99.90
9973;DHT22;5027;53.560;10.062;2023-04-15T00:46:50;14.60;99.90
9973;DHT22;5027;53.560;10.062;2023-04-15T00:49:16;14.40;99.90
9973;DHT22;5027;53.560;10.062;2023-04-15T00:51:44;14.60;99.90
9973;DHT22;5027;53.560;10.062;2023-04-15T00:54:11;14.70;99.90
9973;DHT22;5027;53.560;10.062;2023-04-15T00:56:39;14.90;99.90
9973;DHT22;5027;53.560;10.062;2023-04-15T00:59:07;14.70;99.90
9973;DHT22;5027;53.560;10.062;2023-04-15T01:01:35;14.50;99.90
9973;DHT22;5027;53.560;10.062;2023-04-15T01:04:02;14.80;99.90
9973;DHT22;5027;53.560;10.062;2023-04-15T01:06:30;14.70;99.90
9973;DHT22;5027;53.560;10.062;2023-04-15T01:08:58;15.00;99.90
9973;DHT22;5027;53.560;10.062;2023-04-15T01:11:26;14.80;99.90
9973;DHT22;5027;53.560;10.062;2023-04-15T01:13:54;14.60;99.90
9973;DHT22;5027;53.560;10.062;2023-04-15T01:16:22;14.40;99.90
9973;DHT22;5027;53.560;10.062;2023-04-15T01:18:49;14.50;99.90
9973;DHT22;5027;53.560;10.062;2023-04-15T01:21:17;14.40;99.90
9973;DHT22;5027;53.560;10.062;2023-04-15T01:23:46;14.30;99.90
9973;DHT22;5027;53.560;10.062;2023-04-15T01:26:14;14.40;99.90
9973;DHT22;5027;53.560;10.062;2023-04-15T01:28:41;14.50;99.90
9973;DHT22;5027;53.560;10.062;2023-04-15T01:31:10;14.40;99.90
9973;DHT22;5027;53.560;10.062;2023-04-15T01:33:38;14.40;99.90
9973;DHT22;5027;53.560;10.062;2023-04-15T01:36:07;14.60;99.90
9973;DHT22;5027;53.560;10.062;2023-04-15T01:38:36;14.90;99.90
9973;DHT22;5027;53.560;10.062;2023-04-15T01:41:03;15.00;99.90
9973;DHT22;5027;53.560;10.062;2023-04-15T01:43:30;14.80;99.90
9973;DHT22;5027;53.560;10.062;2023-04-15T01:45:58;14.80;99.90
9973;DHT22;5027;53.560;10.062;2023-04-15T01:48:24;15.00;99.90
9973;DHT22;5027;53.560;10.062;2023-04-15T01:50:53;14.80;99.90
9973;DHT22;5027;53.560;10.062;2023-04-15T01:53:20;14.80;99.90
9973;DHT22;5027;53.560;10.062;2023-04-15T01:55:46;14.80;99.90
9973;DHT22;5027;53.560;10.062;2023-04-15T01:58:13;15.00;99.90
9973;DHT22;5027;53.560;10.062;2023-04-15T02:00:40;15.00;99.90
9973;DHT22;5027;53.560;10.062;2023-04-15T02:03:07;15.00;99.90
9973;DHT22;5027;53.560;10.062;2023-04-15T02:05:34;15.10;99.90
9973;DHT22;5027;53.560;10.062;2023-04-15T02:08:02;15.20;99.90
9973;DHT22;5027;53.560;10.062;2023-04-15T02:10:29;15.20;99.90
9973;DHT22;5027;53.560;10.062;2023-04-15T02:12:57;14.90;99.90
9973;DHT22;5027;53.560;10.062;2023-04-15T02:15:27;15.10;99.90
9973;DHT22;5027;53.560;10.062;2023-04-15T02:17:53;15.00;99.90
9973;DHT22;5027;53.560;10.062;2023-04-15T02:20:21;15.00;99.90
9973;DHT22;5027;53.560;10.062;2023-04-15T02:22:48;14.70;99.90
9973;DHT22;5027;53.560;10.062;2023-04-15T02:25:14;14.60;99.90
9973;DHT22;5027;53.560;10.062;2023-04-15T02:27:42;14.50;99.90
9973;DHT22;5027;53.560;10.062;2023-04-15T02:30:10;14.30;99.90
9973;DHT22;5027;53.560;10.062;2023-04-15T02:32:37;14.30;99.90
9973;DHT22;5027;53.560;10.062;2023-04-15T02:35:07;14.50;99.90
9973;DHT22;5027;53.560;10.062;2023-04-15T02:37:35;14.70;99.90
9973;DHT22;5027;53.560;10.062;2023-04-15T02:40:08;14.60;99.90
9973;DHT22;5027;53.560;10.062;2023-04-15T02:42:41;14.50;99.90
9973;DHT22;5027;53.560;10.062;2023-04-15T02:45:10;14.60;99.90
9973;DHT22;5027;53.560;10.062;2023-04-15T02:47:39;14.90;99.90
9973;DHT22;5027;53.560;10.062;2023-04-15T02:50:11;14.80;99.90
9973;DHT22;5027;53.560;10.062;2023-04-15T02:52:40;14.90;99.90
9973;DHT22;5027;53.560;10.062;2023-04-15T02:55:08;15.00;99.90
9973;DHT22;5027;53.560;10.062;2023-04-15T02:57:36;15.10;99.90
9973;DHT22;5027;53.560;10.062;2023-04-15T03:00:06;14.90;99.90
9973;DHT22;5027;53.560;10.062;2023-04-15T03:02:37;14.90;99.90
9973;DHT22;5027;53.560;10.062;2023-04-15T03:05:05;14.80;99.90
9973;DHT22;5027;53.560;10.062;2023-04-15T03:07:32;14.60;99.90
9973;DHT22;5027;53.560;10.062;2023-04-15T03:10:00;14.40;99.90
9973;DHT22;5027;53.560;10.062;2023-04-15T03:12:27;14.40;99.90
9973;DHT22;5027;53.560;10.062;2023-04-15T03:14:56;14.70;99.90
9973;DHT22;5027;53.560;10.062;2023-04-15T03:17:31;14.90;99.90
9973;DHT22;5027;53.560;10.062;2023-04-15T03:20:00;15.00;99.90
9973;DHT22;5027;53.560;10.062;2023-04-15T03:22:27;14.90;99.90
9973;DHT22;5027;53.560;10.062;2023-04-15T03:24:54;15.00;99.90
9973;DHT22;5027;53.560;10.062;2023-04-15T03:27:20;14.70;99.90
9973;DHT22;5027;53.560;10.062;2023-04-15T03:29:47;14.40;99.90
9973;DHT22;5027;53.560;10.062;2023-04-15T03:32:16;14.30;99.90
9973;DHT22;5027;53.560;10.062;2023-04-15T03:34:43;14.20;99.90
9973;DHT22;5027;53.560;10.062;2023-04-15T03:37:09;14.10;99.90
9973;DHT22;5027;53.560;10.062;2023-04-15T03:39:36;14.30;99.90
9973;DHT22;5027;53.560;10.062;2023-04-15T03:42:03;14.10;99.90
9973;DHT22;5027;53.560;10.062;2023-04-15T03:44:29;14.00;99.90
9973;DHT22;5027;53.560;10.062;2023-04-15T03:46:56;14.10;99.90
9973;DHT22;5027;53.560;10.062;2023-04-15T03:49:23;14.10;99.90
9973;DHT22;5027;53.560;10.062;2023-04-15T03:51:50;14.40;99.90
9973;DHT22;5027;53.560;10.062;2023-04-15T03:54:17;14.80;99.90
9973;DHT22;5027;53.560;10.062;2023-04-15T03:56:43;14.60;99.90
9973;DHT22;5027;53.560;10.062;2023-04-15T03:59:10;14.80;99.90
9973;DHT22;5027;53.560;10.062;2023-04-15T04:01:37;15.00;99.90
9973;DHT22;5027;53.560;10.062;2023-04-15T04:04:03;14.90;99.90
9973;DHT22;5027;53.560;10.062;2023-04-15T04:06:30;14.60;99.90
9973;DHT22;5027;53.560;10.062;2023-04-15T04:08:57;14.80;99.90
9973;DHT22;5027;53.560;10.062;2023-04-15T04:11:23;14.60;99.90
9973;DHT22;5027;53.560;10.062;2023-04-15T04:13:50;14.30;99.90
9973;DHT22;5027;53.560;10.062;2023-04-15T04:16:16;14.30;99.90
9973;DHT22;5027;53.560;10.062;2023-04-15T04:18:43;14.30;99.90
9973;DHT22;5027;53.560;10.062;2023-04-15T04:21:10;14.70;99.90
9973;DHT22;5027;53.560;10.062;2023-04-15T04:23:37;14.90;99.90
9973;DHT22;5027;53.560;10.062;2023-04-15T04:26:04;15.00;99.90
9973;DHT22;5027;53.560;10.062;2023-04-15T04:28:30;14.90;99.90
9973;DHT22;5027;53.560;10.062;2023-04-15T04:30:57;14.60;99.90
9973;DHT22;5027;53.560;10.062;2023-04-15T04:33:24;14.80;99.90
9973;DHT22;5027;53.560;10.062;2023-04-15T04:35:51;14.50;99.90
9973;DHT22;5027;53.560;10.062;2023-04-15T04:38:17;14.50;99.90
9973;DHT22;5027;53.560;10.062;2023-04-15T04:40:44;14.70;99.90
9973;DHT22;5027;53.560;10.062;2023-04-15T04:43:11;14.60;99.90
9973;DHT22;5027;53.560;10.062;2023-04-15T04:45:38;14.50;99.90
9973;DHT22;5027;53.560;10.062;2023-04-15T04:48:05;14.50;99.90
9973;DHT22;5027;53.560;10.062;2023-04-15T04:50:34;14.80;99.90
9973;DHT22;5027;53.560;10.062;2023-04-15T04:53:01;14.90;99.90
9973;DHT22;5027;53.560;10.062;2023-04-15T04:55:28;15.00;99.90
9973;DHT22;5027;53.560;10.062;2023-04-15T04:57:54;15.20;99.90
9973;DHT22;5027;53.560;10.062;2023-04-15T05:00:21;15.30;99.90
9973;DHT22;5027;53.560;10.062;2023-04-15T05:02:48;15.30;99.90
9973;DHT22;5027;53.560;10.062;2023-04-15T05:05:15;15.20;99.90
9973;DHT22;5027;53.560;10.062;2023-04-15T05:07:41;15.30;99.90
9973;DHT22;5027;53.560;10.062;2023-04-15T05:10:08;15.10;99.90
9973;DHT22;5027;53.560;10.062;2023-04-15T05:12:35;14.80;99.90
9973;DHT22;5027;53.560;10.062;2023-04-15T05:15:05;14.70;99.90
9973;DHT22;5027;53.560;10.062;2023-04-15T05:17:31;14.80;99.90
9973;DHT22;5027;53.560;10.062;2023-04-15T05:20:01;14.80;99.90
9973;DHT22;5027;53.560;10.062;2023-04-15T05:22:28;14.80;99.90
9973;DHT22;5027;53.560;10.062;2023-04-15T05:24:55;14.70;99.90
9973;DHT22;5027;53.560;10.062;2023-04-15T05:27:22;14.50;99.90
9973;DHT22;5027;53.560;10.062;2023-04-15T05:29:49;14.60;99.90
9973;DHT22;5027;53.560;10.062;2023-04-15T05:32:16;14.70;99.90
9973;DHT22;5027;53.560;10.062;2023-04-15T05:34:43;15.10;99.90
9973;DHT22;5027;53.560;10.062;2023-04-15T05:37:10;15.10;99.90
9973;DHT22;5027;53.560;10.062;2023-04-15T05:39:37;15.10;99.90
9973;DHT22;5027;53.560;10.062;2023-04-15T05:42:04;15.20;99.90
9973;DHT22;5027;53.560;10.062;2023-04-15T05:44:31;15.40;99.90
9973;DHT22;5027;53.560;10.062;2023-04-15T05:46:59;15.40;99.90
9973;DHT22;5027;53.560;10.062;2023-04-15T05:49:26;15.50;99.90
9973;DHT22;5027;53.560;10.062;2023-04-15T05:51:52;15.40;99.90
9973;DHT22;5027;53.560;10.062;2023-04-15T05:54:19;15.20;99.90
9973;DHT22;5027;53.560;10.062;2023-04-15T05:56:48;15.00;99.90
9973;DHT22;5027;53.560;10.062;2023-04-15T05:59:15;15.10;99.90
9973;DHT22;5027;53.560;10.062;2023-04-15T06:01:42;15.10;99.90
9973;DHT22;5027;53.560;10.062;2023-04-15T06:04:09;15.00;99.90
9973;DHT22;5027;53.560;10.062;2023-04-15T06:06:36;15.00;99.90
9973;DHT22;5027;53.560;10.062;2023-04-15T06:09:04;14.70;99.90
9973;DHT22;5027;53.560;10.062;2023-04-15T06:11:30;14.50;99.90
9973;DHT22;5027;53.560;10.062;2023-04-15T06:13:57;14.60;99.90
9973;DHT22;5027;53.560;10.062;2023-04-15T06:16:27;14.50;99.90
9973;DHT22;5027;53.560;10.062;2023-04-15T06:18:53;14.50;99.90
9973;DHT22;5027;53.560;10.062;2023-04-15T06:21:20;14.60;99.90
9973;DHT22;5027;53.560;10.062;2023-04-15T06:23:47;14.60;99.90
9973;DHT22;5027;53.560;10.062;2023-04-15T06:26:14;14.80;99.90
9973;DHT22;5027;53.560;10.062;2023-04-15T06:28:40;14.60;99.90
9973;DHT22;5027;53.560;10.062;2023-04-15T06:31:07;14.80;99.90
9973;DHT22;5027;53.560;10.062;2023-04-15T06:33:34;14.80;99.90
9973;DHT22;5027;53.560;10.062;2023-04-15T06:36:01;14.80;99.90
9973;DHT22;5027;53.560;10.062;2023-04-15T06:38:27;14.80;99.90
9973;DHT22;5027;53.560;10.062;2023-04-15T06:40:54;14.50;99.90
9973;DHT22;5027;53.560;10.062;2023-04-15T06:43:21;14.20;99.90
9973;DHT22;5027;53.560;10.062;2023-04-15T06:45:47;13.90;99.90
9973;DHT22;5027;53.560;10.062;2023-04-15T06:48:14;13.90;99.90
9973;DHT22;5027;53.560;10.062;2023-04-15T06:50:41;13.90;99.90
9973;DHT22;5027;53.560;10.062;2023-04-15T06:53:08;13.80;99.90
9973;DHT22;5027;53.560;10.062;2023-04-15T06:55:35;14.20;99.90
9973;DHT22;5027;53.560;10.062;2023-04-15T06:58:01;14.10;99.90
9973;DHT22;5027;53.560;10.062;2023-04-15T07:00:28;14.20;99.90
9973;DHT22;5027;53.560;10.062;2023-04-15T07:02:55;14.10;99.90
9973;DHT22;5027;53.560;10.062;2023-04-15T07:05:22;14.00;99.90
9973;DHT22;5027;53.560;10.062;2023-04-15T07:07:49;13.90;99.90
9973;DHT22;5027;53.560;10.062;2023-04-15T07:10:15;13.90;99.90
9973;DHT22;5027;53.560;10.062;2023-04-15T07:12:42;14.00;99.90
9973;DHT22;5027;53.560;10.062;2023-04-15T07:15:09;14.00;99.90
9973;DHT22;5027;53.560;10.062;2023-04-15T07:17:36;13.90;99.90
9973;DHT22;5027;53.560;10.062;2023-04-15T07:20:03;13.90;99.90
9973;DHT22;5027;53.560;10.062;2023-04-15T07:22:30;14.10;99.90
9973;DHT22;5027;53.560;10.062;2023-04-15T07:24:57;14.20;99.90
9973;DHT22;5027;53.560;10.062;2023-04-15T07:27:23;14.10;99.90
9973;DHT22;5027;53.560;10.062;2023-04-15T07:29:50;14.00;99.90
9973;DHT22;5027;53.560;10.062;2023-04-15T07:32:18;13.90;99.90
9973;DHT22;5027;53.560;10.062;2023-04-15T07:34:45;14.10;99.90
9973;DHT22;5027;53.560;10.062;2023-04-15T07:37:11;14.10;99.90
9973;DHT22;5027;53.560;10.062;2023-04-15T07:39:41;13.90;99.90
9973;DHT22;5027;53.560;10.062;2023-04-15T07:42:08;13.80;99.90
9973;DHT22;5027;53.560;10.062;2023-04-15T07:44:35;13.80;99.90
9973;DHT22;5027;53.560;10.062;2023-04-15T07:47:02;13.80;99.90
9973;DHT22;5027;53.560;10.062;2023-04-15T07:49:29;13.80;99.90
9973;DHT22;5027;53.560;10.062;2023-04-15T07:51:56;13.90;99.90
9973;DHT22;5027;53.560;10.062;2023-04-15T07:54:25;14.30;99.90
9973;DHT22;5027;53.560;10.062;2023-04-15T07:56:52;14.10;99.90
9973;DHT22;5027;53.560;10.062;2023-04-15T07:59:21;14.00;99.90
9973;DHT22;5027;53.560;10.062;2023-04-15T08:01:48;13.90;99.90
9973;DHT22;5027;53.560;10.062;2023-04-15T08:04:15;14.50;99.90
9973;DHT22;5027;53.560;10.062;2023-04-15T08:06:42;14.70;99.90
9973;DHT22;5027;53.560;10.062;2023-04-15T08:09:09;14.70;99.90
9973;DHT22;5027;53.560;10.062;2023-04-15T08:11:36;14.50;99.90
9973;DHT22;5027;53.560;10.062;2023-04-15T08:14:03;14.20;99.90
9973;DHT22;5027;53.560;10.062;2023-04-15T08:16:30;14.10;99.90
9973;DHT22;5027;53.560;10.062;2023-04-15T08:18:57;14.00;99.90
9973;DHT22;5027;53.560;10.062;2023-04-15T08:21:24;13.90;99.90
9973;DHT22;5027;53.560;10.062;2023-04-15T08:23:52;14.00;99.90
9973;DHT22;5027;53.560;10.062;2023-04-15T08:26:19;14.10;99.90
9973;DHT22;5027;53.560;10.062;2023-04-15T08:28:47;14.00;99.90
9973;DHT22;5027;53.560;10.062;2023-04-15T08:31:14;13.90;99.90
9973;DHT22;5027;53.560;10.062;2023-04-15T08:33:41;14.00;99.90
9973;DHT22;5027;53.560;10.062;2023-04-15T08:36:08;14.00;99.90
9973;DHT22;5027;53.560;10.062;2023-04-15T08:38:35;13.90;99.90
9973;DHT22;5027;53.560;10.062;2023-04-15T08:41:10;13.90;99.90
9973;DHT22;5027;53.560;10.062;2023-04-15T08:43:51;14.00;99.90
9973;DHT22;5027;53.560;10.062;2023-04-15T08:46:18;14.00;99.90
9973;DHT22;5027;53.560;10.062;2023-04-15T08:48:47;14.00;99.90
9973;DHT22;5027;53.560;10.062;2023-04-15T08:51:16;14.00;99.90
9973;DHT22;5027;53.560;10.062;2023-04-15T08:53:44;14.00;99.90
9973;DHT22;5027;53.560;10.062;2023-04-15T08:56:13;13.90;99.90
9973;DHT22;5027;53.560;10.062;2023-04-15T08:58:43;13.80;99.90
9973;DHT22;5027;53.560;10.062;2023-04-15T09:01:13;14.00;99.90
9973;DHT22;5027;53.560;10.062;2023-04-15T09:03:41;14.00;99.90
9973;DHT22;5027;53.560;10.062;2023-04-15T09:06:08;14.10;99.90
9973;DHT22;5027;53.560;10.062;2023-04-15T09:08:34;14.00;99.90
9973;DHT22;5027;53.560;10.062;2023-04-15T09:11:02;13.90;99.90
9973;DHT22;5027;53.560;10.062;2023-04-15T09:13:29;13.70;99.90
9973;DHT22;5027;53.560;10.062;2023-04-15T09:15:56;13.70;99.90
9973;DHT22;5027;53.560;10.062;2023-04-15T09:18:28;13.70;99.90
9973;DHT22;5027;53.560;10.062;2023-04-15T09:20:55;13.70;99.90
9973;DHT22;5027;53.560;10.062;2023-04-15T09:23:22;13.70;99.90
9973;DHT22;5027;53.560;10.062;2023-04-15T09:25:49;13.70;99.90
9973;DHT22;5027;53.560;10.062;2023-04-15T09:28:23;13.80;99.90
9973;DHT22;5027;53.560;10.062;2023-04-15T09:30:52;13.80;99.90
9973;DHT22;5027;53.560;10.062;2023-04-15T09:33:20;13.80;99.90
9973;DHT22;5027;53.560;10.062;2023-04-15T09:36:04;13.80;99.90
9973;DHT22;5027;53.560;10.062;2023-04-15T09:38:31;13.90;99.90
9973;DHT22;5027;53.560;10.062;2023-04-15T09:40:58;13.90;99.90
9973;DHT22;5027;53.560;10.062;2023-04-15T09:43:45;13.90;99.90
9973;DHT22;5027;53.560;10.062;2023-04-15T09:46:12;13.90;99.90
9973;DHT22;5027;53.560;10.062;2023-04-15T09:48:39;14.00;99.90
9973;DHT22;5027;53.560;10.062;2023-04-15T09:51:05;14.00;99.90
9973;DHT22;5027;53.560;10.062;2023-04-15T09:53:34;14.00;99.90
9973;DHT22;5027;53.560;10.062;2023-04-15T09:56:01;14.00;99.90
9973;DHT22;5027;53.560;10.062;2023-04-15T09:58:35;14.00;99.90
9973;DHT22;5027;53.560;10.062;2023-04-15T10:01:04;14.00;99.90
9973;DHT22;5027;53.560;10.062;2023-04-15T10:03:35;14.00;99.90
9973;DHT22;5027;53.560;10.062;2023-04-15T10:06:05;14.00;99.90
9973;DHT22;5027;53.560;10.062;2023-04-15T10:08:33;14.00;99.90
9973;DHT22;5027;53.560;10.062;2023-04-15T10:11:03;14.10;99.90
9973;DHT22;5027;53.560;10.062;2023-04-15T10:13:31;14.20;99.90
9973;DHT22;5027;53.560;10.062;2023-04-15T10:16:10;14.30;99.90
9973;DHT22;5027;53.560;10.062;2023-04-15T10:18:41;14.40;99.90
9973;DHT22;5027;53.560;10.062;2023-04-15T10:21:09;14.50;99.90
9973;DHT22;5027;53.560;10.062;2023-04-15T10:23:36;14.60;99.90
9973;DHT22;5027;53.560;10.062;2023-04-15T10:26:04;14.60;99.90
9973;DHT22;5027;53.560;10.062;2023-04-15T10:28:33;14.60;99.90
9973;DHT22;5027;53.560;10.062;2023-04-15T10:31:00;14.60;99.90
9973;DHT22;5027;53.560;10.062;2023-04-15T10:33:30;14.60;99.90
9973;DHT22;5027;53.560;10.062;2023-04-15T10:36:05;14.60;99.90
9973;DHT22;5027;53.560;10.062;2023-04-15T10:38:42;14.60;99.90
9973;DHT22;5027;53.560;10.062;2023-04-15T10:41:21;14.60;99.90
9973;DHT22;5027;53.560;10.062;2023-04-15T10:43:58;14.70;99.90
9973;DHT22;5027;53.560;10.062;2023-04-15T10:46:36;14.70;99.90
9973;DHT22;5027;53.560;10.062;2023-04-15T10:52:25;14.70;99.90
9973;DHT22;5027;53.560;10.062;2023-04-15T10:55:13;14.70;99.90
9973;DHT22;5027;53.560;10.062;2023-04-15T10:57:42;14.70;99.90
9973;DHT22;5027;53.560;10.062;2023-04-15T11:00:10;14.70;99.90
9973;DHT22;5027;53.560;10.062;2023-04-15T11:05:09;14.80;99.90
9973;DHT22;5027;53.560;10.062;2023-04-15T11:12:44;14.80;99.90
9973;DHT22;5027;53.560;10.062;2023-04-15T11:18:24;14.80;99.90
9973;DHT22;5027;53.560;10.062;2023-04-15T11:20:51;14.80;99.90
9973;DHT22;5027;53.560;10.062;2023-04-15T11:23:33;14.80;99.90
9973;DHT22;5027;53.560;10.062;2023-04-15T11:26:02;14.70;99.90
9973;DHT22;5027;53.560;10.062;2023-04-15T11:28:31;14.70;99.90
9973;DHT22;5027;53.560;10.062;2023-04-15T11:31:05;14.70;99.90
9973;DHT22;5027;53.560;10.062;2023-04-15T11:33:32;14.70;99.90
9973;DHT22;5027;53.560;10.062;2023-04-15T11:36:00;14.70;99.90
9973;DHT22;5027;53.560;10.062;2023-04-15T11:38:27;14.60;99.90
9973;DHT22;5027;53.560;10.062;2023-04-15T11:40:55;14.60;99.90
9973;DHT22;5027;53.560;10.062;2023-04-15T11:43:22;14.70;99.90
9973;DHT22;5027;53.560;10.062;2023-04-15T11:45:57;14.60;99.90
9973;DHT22;5027;53.560;10.062;2023-04-15T11:48:30;14.60;99.90
9973;DHT22;5027;53.560;10.062;2023-04-15T11:50:58;14.70;99.90
9973;DHT22;5027;53.560;10.062;2023-04-15T11:53:47;14.70;99.90
9973;DHT22;5027;53.560;10.062;2023-04-15T11:56:18;14.70;99.90
9973;DHT22;5027;53.560;10.062;2023-04-15T11:58:47;14.80;99.90
9973;DHT22;5027;53.560;10.062;2023-04-15T12:01:16;14.80;99.90
9973;DHT22;5027;53.560;10.062;2023-04-15T12:03:47;14.90;99.90
9973;DHT22;5027;53.560;10.062;2023-04-15T12:06:31;14.90;99.90
9973;DHT22;5027;53.560;10.062;2023-04-15T12:09:07;14.90;99.90
9973;DHT22;5027;53.560;10.062;2023-04-15T12:11:36;14.90;99.90
9973;DHT22;5027;53.560;10.062;2023-04-15T12:14:09;14.80;99.90
9973;DHT22;5027;53.560;10.062;2023-04-15T12:16:49;14.80;99.90
9973;DHT22;5027;53.560;10.062;2023-04-15T12:19:30;14.90;99.90
9973;DHT22;5027;53.560;10.062;2023-04-15T12:21:59;14.90;99.90
9973;DHT22;5027;53.560;10.062;2023-04-15T12:24:29;14.90;99.90
9973;DHT22;5027;53.560;10.062;2023-04-15T12:26:57;14.90;99.90
9973;DHT22;5027;53.560;10.062;2023-04-15T12:29:28;14.90;99.90
9973;DHT22;5027;53.560;10.062;2023-04-15T12:31:57;14.90;99.90
9973;DHT22;5027;53.560;10.062;2023-04-15T12:34:29;14.90;99.90
9973;DHT22;5027;53.560;10.062;2023-04-15T12:36:57;14.90;99.90
9973;DHT22;5027;53.560;10.062;2023-04-15T12:39:25;14.80;99.90
9973;DHT22;5027;53.560;10.062;2023-04-15T12:41:56;14.80;99.90
9973;DHT22;5027;53.560;10.062;2023-04-15T12:44:23;14.80;99.90
9973;DHT22;5027;53.560;10.062;2023-04-15T12:46:50;14.80;99.90
9973;DHT22;5027;53.560;10.062;2023-04-15T12:49:22;14.80;99.90
9973;DHT22;5027;53.560;10.062;2023-04-15T12:51:52;14.80;99.90
9973;DHT22;5027;53.560;10.062;2023-04-15T12:54:21;14.70;99.90
9973;DHT22;5027;53.560;10.062;2023-04-15T12:56:48;14.70;99.90
9973;DHT22;5027;53.560;10.062;2023-04-15T12:59:16;14.80;99.90
9973;DHT22;5027;53.560;10.062;2023-04-15T13:01:46;14.80;99.90
9973;DHT22;5027;53.560;10.062;2023-04-15T13:04:14;14.80;99.90
9973;DHT22;5027;53.560;10.062;2023-04-15T13:06:42;14.80;99.90
9973;DHT22;5027;53.560;10.062;2023-04-15T13:09:08;14.80;99.90
9973;DHT22;5027;53.560;10.062;2023-04-15T13:11:35;14.80;99.90
9973;DHT22;5027;53.560;10.062;2023-04-15T13:14:04;14.80;99.90
9973;DHT22;5027;53.560;10.062;2023-04-15T13:16:32;14.80;99.90
9973;DHT22;5027;53.560;10.062;2023-04-15T13:19:00;14.90;99.90
9973;DHT22;5027;53.560;10.062;2023-04-15T13:21:27;14.90;99.90
9973;DHT22;5027;53.560;10.062;2023-04-15T13:23:54;14.80;99.90
9973;DHT22;5027;53.560;10.062;2023-04-15T13:26:21;14.90;99.90
9973;DHT22;5027;53.560;10.062;2023-04-15T13:28:48;14.90;99.90
9973;DHT22;5027;53.560;10.062;2023-04-15T13:31:14;14.90;99.90
9973;DHT22;5027;53.560;10.062;2023-04-15T13:33:41;14.90;99.90
9973;DHT22;5027;53.560;10.062;2023-04-15T13:36:08;15.00;99.90
9973;DHT22;5027;53.560;10.062;2023-04-15T13:38:35;15.00;99.90
9973;DHT22;5027;53.560;10.062;2023-04-15T13:41:01;15.10;99.90
9973;DHT22;5027;53.560;10.062;2023-04-15T13:43:28;15.10;99.90
9973;DHT22;5027;53.560;10.062;2023-04-15T13:45:55;15.20;99.90
9973;DHT22;5027;53.560;10.062;2023-04-15T13:48:21;15.20;99.90
9973;DHT22;5027;53.560;10.062;2023-04-15T13:50:48;15.20;99.90
9973;DHT22;5027;53.560;10.062;2023-04-15T13:53:15;15.20;99.90
9973;DHT22;5027;53.560;10.062;2023-04-15T13:55:42;15.20;99.90
9973;DHT22;5027;53.560;10.062;2023-04-15T13:58:09;15.10;99.90
9973;DHT22;5027;53.560;10.062;2023-04-15T14:00:36;15.20;99.90
9973;DHT22;5027;53.560;10.062;2023-04-15T14:03:03;15.20;99.90
9973;DHT22;5027;53.560;10.062;2023-04-15T14:05:31;15.20;99.90
9973;DHT22;5027;53.560;10.062;2023-04-15T14:07:59;15.20;99.90
9973;DHT22;5027;53.560;10.062;2023-04-15T14:10:26;15.20;99.90
9973;DHT22;5027;53.560;10.062;2023-04-15T14:12:52;15.30;99.90
9973;DHT22;5027;53.560;10.062;2023-04-15T14:15:20;15.30;99.90
9973;DHT22;5027;53.560;10.062;2023-04-15T14:17:47;15.40;99.90
9973;DHT22;5027;53.560;10.062;2023-04-15T14:20:13;15.40;99.90
9973;DHT22;5027;53.560;10.062;2023-04-15T14:22:43;15.40;99.90
9973;DHT22;5027;53.560;10.062;2023-04-15T14:25:09;15.30;99.90
9973;DHT22;5027;53.560;10.062;2023-04-15T14:27:49;15.30;99.90
9973;DHT22;5027;53.560;10.062;2023-04-15T14:30:16;15.40;99.90
9973;DHT22;5027;53.560;10.062;2023-04-15T14:32:43;15.40;99.90
9973;DHT22;5027;53.560;10.062;2023-04-15T14:35:10;15.40;99.90
9973;DHT22;5027;53.560;10.062;2023-04-15T14:37:37;15.50;99.90
9973;DHT22;5027;53.560;10.062;2023-04-15T14:40:04;15.40;99.90
9973;DHT22;5027;53.560;10.062;2023-04-15T14:42:31;15.40;99.90
9973;DHT22;5027;53.560;10.062;2023-04-15T14:44:58;15.60;99.90
9973;DHT22;5027;53.560;10.062;2023-04-15T14:47:24;15.50;99.90
9973;DHT22;5027;53.560;10.062;2023-04-15T14:49:51;15.40;99.90
9973;DHT22;5027;53.560;10.062;2023-04-15T14:52:18;15.50;99.90
9973;DHT22;5027;53.560;10.062;2023-04-15T14:54:45;15.60;99.90
9973;DHT22;5027;53.560;10.062;2023-04-15T14:57:11;15.50;99.90
9973;DHT22;5027;53.560;10.062;2023-04-15T14:59:38;15.50;99.90
9973;DHT22;5027;53.560;10.062;2023-04-15T15:02:04;15.50;99.90
9973;DHT22;5027;53.560;10.062;2023-04-15T15:04:31;15.50;99.90
9973;DHT22;5027;53.560;10.062;2023-04-15T15:06:59;15.50;99.90
9973;DHT22;5027;53.560;10.062;2023-04-15T15:09:26;15.50;99.90
9973;DHT22;5027;53.560;10.062;2023-04-15T15:11:52;15.50;99.90
9973;DHT22;5027;53.560;10.062;2023-04-15T15:14:19;15.40;99.90
9973;DHT22;5027;53.560;10.062;2023-04-15T15:16:46;15.50;99.90
9973;DHT22;5027;53.560;10.062;2023-04-15T15:19:13;15.50;99.90
9973;DHT22;5027;53.560;10.062;2023-04-15T15:21:40;15.50;99.90
9973;DHT22;5027;53.560;10.062;2023-04-15T15:24:06;15.50;99.90
9973;DHT22;5027;53.560;10.062;2023-04-15T15:26:33;15.40;99.90
9973;DHT22;5027;53.560;10.062;2023-04-15T15:28:59;15.40;99.90
9973;DHT22;5027;53.560;10.062;2023-04-15T15:31:26;15.40;99.90
9973;DHT22;5027;53.560;10.062;2023-04-15T15:33:53;15.30;99.90
9973;DHT22;5027;53.560;10.062;2023-04-15T15:36:19;15.40;99.90
9973;DHT22;5027;53.560;10.062;2023-04-15T15:38:46;15.40;99.90
9973;DHT22;5027;53.560;10.062;2023-04-15T15:41:13;15.40;99.90
9973;DHT22;5027;53.560;10.062;2023-04-15T15:43:41;15.40;99.90
9973;DHT22;5027;53.560;10.062;2023-04-15T15:46:07;15.40;99.90
9973;DHT22;5027;53.560;10.062;2023-04-15T15:48:34;15.40;99.90
9973;DHT22;5027;53.560;10.062;2023-04-15T15:51:01;15.40;99.90
9973;DHT22;5027;53.560;10.062;2023-04-15T15:53:29;15.40;99.90
9973;DHT22;5027;53.560;10.062;2023-04-15T15:55:56;15.40;99.90
9973;DHT22;5027;53.560;10.062;2023-04-15T15:58:23;15.30;99.90
9973;DHT22;5027;53.560;10.062;2023-04-15T16:00:49;15.40;99.90
9973;DHT22;5027;53.560;10.062;2023-04-15T16:03:16;15.40;99.90